W. O. Watson — WDE2805 — position and weather

sailwx.info

Track history (hours):
 
Tides and Currents Weather Stations Pressure Air Temp Water Temp Dewpoint Dewpoint Depression Visibility Wind Speed Wind Dir Waves Ship Positions

W. O. Watson

Owner: Martin Operating Partnership,LP, Vidor, TX. More information available from US FCC via Universal Licensing System and Coast Guard Vessel Documentation Center.

Last reported at 2015-Apr-26 20:10 UTC. Time now 2015-Apr-28 16:02 UTC.
Position N 30°02' W 094°03'.

Length 32 m; draft 2.8 m.

MMSI: 367329860.

Date/timePositionNaut miles runAvg speedWind from/ knotsBaromVisibWave heightAir tempDewpointWater temp
2015-Apr-26 20:10N 30°02' W 094°03'0 0.0
2015-Apr-26 16:08N 30°02' W 094°03'0 0.0
2015-Apr-26 12:17N 30°02' W 094°03'0 0.0
2015-Apr-26 11:33N 30°02' W 094°03'0 0.0
2015-Apr-26 10:26N 30°02' W 094°03'0 0.0
2015-Apr-26 09:30N 30°02' W 094°03'0 0.0
2015-Apr-26 08:33N 30°02' W 094°03'  
2015-Apr-17 01:33N 29°31' W 094°53'8 8.0
2015-Apr-17 00:33N 29°38' W 094°58'7 6.8
2015-Apr-16 23:33N 29°44' W 095°02'4 3.6
2015-Apr-16 22:32N 29°47' W 095°05'0 0.1
2015-Apr-16 21:33N 29°47' W 095°05'0 0.0
2015-Apr-16 20:33N 29°47' W 095°05'  
Track history (hours):
 
Tides and Currents Weather Stations Pressure Air Temp Water Temp Dewpoint Dewpoint Depression Visibility Wind Speed Wind Dir Waves Ship Positions

W. O. Watson

Owner: Martin Operating Partnership,LP, Vidor, TX. More information available from US FCC via Universal Licensing System and Coast Guard Vessel Documentation Center.

Last reported at 2015-Apr-26 20:10 UTC. Time now 2015-Apr-28 16:02 UTC.
Position N 30°02' W 094°03'.

Length 32 m; draft 2.8 m.

MMSI: 367329860.

Date/timePositionNaut miles runAvg speedWind from/ knotsBaromVisibWave heightAir tempDewpointWater temp
2015-Apr-26 20:10N 30°02' W 094°03'0 0.0
2015-Apr-26 16:08N 30°02' W 094°03'0 0.0
2015-Apr-26 12:17N 30°02' W 094°03'0 0.0
2015-Apr-26 11:33N 30°02' W 094°03'0 0.0
2015-Apr-26 10:26N 30°02' W 094°03'0 0.0
2015-Apr-26 09:30N 30°02' W 094°03'0 0.0
2015-Apr-26 08:33N 30°02' W 094°03'  
2015-Apr-17 01:33N 29°31' W 094°53'8 8.0
2015-Apr-17 00:33N 29°38' W 094°58'7 6.8
2015-Apr-16 23:33N 29°44' W 095°02'4 3.6
2015-Apr-16 22:32N 29°47' W 095°05'0 0.1
2015-Apr-16 21:33N 29°47' W 095°05'0 0.0
2015-Apr-16 20:33N 29°47' W 095°05'  

Dump ship's entire track history